createdAt,value
2018-05-31T00:00:02.180Z,8.03
2018-05-31T00:02:30.541Z,8.07
2018-05-31T00:04:58.152Z,8.93
2018-05-31T00:07:25.726Z,8.60
2018-05-31T00:09:53.338Z,8.43
2018-05-31T00:12:20.919Z,8.00
2018-05-31T00:14:49.412Z,9.07
2018-05-31T00:17:17.742Z,8.67
2018-05-31T00:19:45.322Z,8.87
2018-05-31T00:22:12.931Z,9.50
2018-05-31T00:24:41.347Z,8.87
2018-05-31T00:27:08.964Z,8.30
2018-05-31T00:29:36.530Z,8.87
2018-05-31T00:32:04.916Z,8.77
2018-05-31T00:34:33.263Z,9.40
2018-05-31T00:37:00.877Z,8.80
2018-05-31T00:39:28.474Z,9.17
2018-05-31T00:41:56.082Z,9.27
2018-05-31T00:44:23.681Z,8.40
2018-05-31T00:46:51.302Z,8.80
2018-05-31T00:49:18.900Z,8.87
2018-05-31T00:51:46.525Z,8.57
2018-05-31T00:54:14.090Z,9.20
2018-05-31T00:56:41.716Z,9.40
2018-05-31T00:59:09.284Z,9.53
2018-05-31T01:01:36.885Z,9.33
2018-05-31T01:04:04.482Z,9.70
2018-05-31T01:06:32.100Z,9.90
2018-05-31T01:08:59.697Z,9.27
2018-05-31T01:11:27.281Z,9.43
2018-05-31T01:13:54.921Z,9.30
2018-05-31T01:16:22.515Z,9.60
2018-05-31T01:18:50.909Z,9.43
2018-05-31T01:21:19.256Z,9.73
2018-05-31T01:23:46.884Z,9.50
2018-05-31T01:26:14.450Z,9.90
2018-05-31T01:28:42.061Z,9.93
2018-05-31T01:31:09.628Z,9.77
2018-05-31T01:33:38.000Z,9.83
2018-05-31T01:36:05.580Z,9.87
2018-05-31T01:38:33.178Z,9.73
2018-05-31T01:41:00.754Z,9.63
2018-05-31T01:43:28.358Z,9.40
2018-05-31T01:45:55.960Z,10.30
2018-05-31T01:48:24.362Z,10.57
2018-05-31T01:50:51.985Z,9.87
2018-05-31T01:53:19.575Z,9.83
2018-05-31T01:55:47.191Z,9.53
2018-05-31T01:58:14.780Z,9.97
2018-05-31T02:00:42.403Z,11.17
2018-05-31T02:03:09.991Z,11.33
2018-05-31T02:05:37.619Z,10.17
2018-05-31T02:08:05.257Z,10.77
2018-05-31T02:10:33.623Z,11.23
2018-05-31T02:13:01.210Z,10.90
2018-05-31T02:15:29.591Z,10.40
2018-05-31T02:17:57.947Z,10.80
2018-05-31T02:20:25.580Z,10.83
2018-05-31T02:22:53.167Z,10.43
2018-05-31T02:25:20.800Z,10.70
2018-05-31T02:27:48.374Z,10.37
2018-05-31T02:30:15.948Z,11.30
2018-05-31T02:32:43.566Z,11.57
2018-05-31T02:35:11.941Z,11.57
2018-05-31T02:37:39.546Z,11.53
2018-05-31T02:40:07.150Z,11.83
2018-05-31T02:42:34.748Z,11.63
2018-05-31T02:45:03.128Z,11.60
2018-05-31T02:47:31.501Z,11.50
2018-05-31T02:49:59.895Z,11.07
2018-05-31T02:52:28.252Z,11.03
2018-05-31T02:54:55.881Z,11.50
2018-05-31T02:57:23.509Z,11.13
2018-05-31T02:59:51.895Z,10.87
2018-05-31T03:02:19.491Z,11.87
2018-05-31T03:04:47.119Z,11.53
2018-05-31T03:07:14.712Z,11.17
2018-05-31T03:09:42.347Z,11.53
2018-05-31T03:12:09.922Z,11.13
2018-05-31T03:14:38.313Z,11.93
2018-05-31T03:17:06.683Z,11.10
2018-05-31T03:19:35.110Z,11.70
2018-05-31T03:22:02.710Z,11.63
2018-05-31T03:24:30.346Z,12.43
2018-05-31T03:26:57.948Z,11.30
2018-05-31T03:29:25.571Z,11.43
2018-05-31T03:31:53.151Z,11.33
2018-05-31T03:34:20.782Z,12.10
2018-05-31T03:36:48.383Z,11.73
2018-05-31T03:39:16.021Z,12.13
2018-05-31T03:41:44.382Z,12.17
2018-05-31T03:44:12.754Z,12.73
2018-05-31T03:46:40.393Z,13.17
2018-05-31T03:49:07.986Z,13.03
2018-05-31T03:51:35.615Z,11.63
2018-05-31T03:54:03.214Z,13.77
2018-05-31T03:56:30.826Z,14.60
2018-05-31T03:58:58.407Z,13.93
2018-05-31T04:01:26.060Z,13.97
2018-05-31T04:03:54.391Z,13.93
2018-05-31T04:06:22.007Z,12.93
2018-05-31T04:08:51.267Z,13.10
2018-05-31T04:11:18.895Z,13.10
2018-05-31T04:13:46.605Z,12.47
2018-05-31T04:16:15.000Z,13.03
2018-05-31T04:18:42.563Z,12.73
2018-05-31T04:21:10.151Z,12.17
2018-05-31T04:23:37.771Z,12.07
2018-05-31T04:26:05.589Z,11.37
2018-05-31T04:28:33.171Z,10.73
2018-05-31T04:31:00.758Z,11.07
2018-05-31T04:33:28.375Z,11.73
2018-05-31T04:35:56.727Z,11.80
2018-05-31T04:38:24.355Z,11.37
2018-05-31T04:40:51.954Z,12.23
2018-05-31T04:43:19.578Z,11.20
2018-05-31T04:45:47.145Z,10.77
2018-05-31T04:48:14.767Z,10.70
2018-05-31T04:50:42.366Z,10.27
2018-05-31T04:53:10.030Z,10.07
2018-05-31T04:55:37.608Z,10.43
2018-05-31T04:58:05.248Z,10.43
2018-05-31T05:00:32.836Z,9.90
2018-05-31T05:03:00.475Z,10.33
2018-05-31T05:05:28.080Z,9.43
2018-05-31T05:07:55.664Z,8.80
2018-05-31T05:10:23.295Z,9.10
2018-05-31T05:12:50.902Z,9.57
2018-05-31T05:15:18.521Z,9.33
2018-05-31T05:17:46.119Z,9.07
2018-05-31T05:20:13.749Z,9.20
2018-05-31T05:22:41.344Z,9.30
2018-05-31T05:25:08.958Z,8.10
2018-05-31T05:27:37.320Z,9.63
2018-05-31T05:30:04.926Z,9.40
2018-05-31T05:32:33.309Z,9.27
2018-05-31T05:35:00.887Z,9.90
2018-05-31T05:37:28.506Z,10.67
2018-05-31T05:39:56.113Z,10.83
2018-05-31T05:42:23.694Z,11.00
2018-05-31T05:44:51.326Z,10.07
2018-05-31T05:47:19.681Z,11.27
2018-05-31T05:49:47.280Z,12.70
2018-05-31T05:52:14.921Z,11.57
2018-05-31T05:54:42.510Z,11.70
2018-05-31T05:57:10.141Z,12.00
2018-05-31T05:59:37.762Z,11.43
2018-05-31T06:02:05.382Z,11.00
2018-05-31T06:04:33.009Z,10.67
2018-05-31T06:07:00.662Z,11.27
2018-05-31T06:09:28.250Z,10.87
2018-05-31T06:11:55.862Z,11.07
2018-05-31T06:14:24.245Z,11.10
2018-05-31T06:16:52.634Z,10.97
2018-05-31T06:19:20.988Z,11.80
2018-05-31T06:21:48.591Z,11.43
2018-05-31T06:24:16.936Z,10.93
2018-05-31T06:26:44.540Z,10.87
2018-05-31T06:29:12.140Z,10.53
2018-05-31T06:31:39.777Z,11.60
2018-05-31T06:34:07.354Z,10.67
2018-05-31T06:36:36.729Z,10.97
2018-05-31T06:39:05.948Z,10.73
2018-05-31T06:41:33.588Z,11.87
2018-05-31T06:44:01.166Z,11.13
2018-05-31T06:46:29.532Z,11.23
2018-05-31T06:48:57.132Z,11.23
2018-05-31T06:51:25.497Z,10.77
2018-05-31T06:53:53.088Z,11.33
2018-05-31T06:56:20.706Z,11.40
2018-05-31T06:58:48.307Z,11.90
2018-05-31T07:01:16.651Z,11.67
2018-05-31T07:03:44.258Z,10.80
2018-05-31T07:06:12.588Z,9.87
2018-05-31T07:08:40.189Z,11.67
2018-05-31T07:11:08.528Z,10.73
2018-05-31T07:13:36.105Z,11.33
2018-05-31T07:16:03.692Z,11.10
2018-05-31T07:18:31.307Z,11.07
2018-05-31T07:20:58.949Z,11.43
2018-05-31T07:23:26.554Z,12.50
2018-05-31T07:25:54.139Z,13.60
2018-05-31T07:28:21.698Z,14.00
2018-05-31T07:30:49.293Z,14.73
2018-05-31T07:33:16.882Z,14.33
2018-05-31T07:35:45.251Z,11.77
2018-05-31T07:38:12.865Z,11.90
2018-05-31T07:40:40.470Z,11.77
2018-05-31T07:43:08.060Z,10.53
2018-05-31T07:45:35.670Z,11.63
2018-05-31T07:48:03.238Z,11.97
2018-05-31T07:50:30.805Z,11.37
2018-05-31T07:52:58.403Z,11.17
2018-05-31T07:55:26.762Z,11.20
2018-05-31T07:57:54.419Z,11.37
2018-05-31T08:00:22.014Z,11.57
2018-05-31T08:02:50.421Z,11.27
2018-05-31T08:05:18.001Z,11.67
2018-05-31T08:07:45.618Z,10.93
2018-05-31T08:10:13.192Z,11.47
2018-05-31T08:12:41.565Z,10.97
2018-05-31T08:15:09.126Z,11.23
2018-05-31T08:17:36.796Z,12.03
2018-05-31T08:20:04.386Z,12.07
2018-05-31T08:22:32.752Z,11.57
2018-05-31T08:25:00.317Z,11.10
2018-05-31T08:27:27.934Z,10.50
2018-05-31T08:29:55.496Z,10.00
2018-05-31T08:32:23.052Z,10.23
2018-05-31T08:34:50.660Z,10.13
2018-05-31T08:37:18.248Z,10.33
2018-05-31T08:39:45.852Z,10.93
2018-05-31T08:42:13.517Z,10.67
2018-05-31T08:44:41.080Z,10.70
2018-05-31T08:47:08.721Z,11.30
2018-05-31T08:49:36.437Z,11.20
2018-05-31T08:52:03.999Z,10.80
2018-05-31T08:54:31.625Z,12.63
2018-05-31T08:56:59.188Z,11.40
2018-05-31T08:59:27.556Z,11.53
2018-05-31T09:01:55.119Z,11.60
2018-05-31T09:04:22.703Z,11.60
2018-05-31T09:06:50.366Z,13.27
2018-05-31T09:09:17.960Z,12.60
2018-05-31T09:11:45.576Z,13.00
2018-05-31T09:14:13.157Z,11.80
2018-05-31T09:16:40.783Z,11.80
2018-05-31T09:19:08.415Z,11.63
2018-05-31T09:21:35.978Z,11.83
2018-05-31T09:24:03.566Z,12.00
2018-05-31T09:26:31.680Z,11.57
2018-05-31T09:28:59.245Z,11.57
2018-05-31T09:31:26.811Z,11.37
2018-05-31T09:33:54.449Z,11.47
2018-05-31T09:36:22.025Z,11.27
2018-05-31T09:38:49.633Z,10.73
2018-05-31T09:41:17.454Z,11.27
2018-05-31T09:43:45.064Z,11.60
2018-05-31T09:46:12.636Z,11.13
2018-05-31T09:48:40.222Z,11.20
2018-05-31T09:51:07.782Z,10.33
2018-05-31T09:53:35.395Z,11.23
2018-05-31T09:56:02.956Z,11.03
2018-05-31T09:58:30.555Z,11.47
2018-05-31T10:00:58.896Z,12.30
2018-05-31T10:03:26.500Z,11.50
2018-05-31T10:05:54.845Z,11.23
2018-05-31T10:08:22.459Z,10.80
2018-05-31T10:10:50.048Z,11.07
2018-05-31T10:13:17.681Z,12.10
2018-05-31T10:15:46.008Z,11.33
2018-05-31T10:18:13.596Z,11.40
2018-05-31T10:20:41.159Z,11.23
2018-05-31T10:23:08.751Z,12.03
2018-05-31T10:25:37.130Z,10.53
2018-05-31T10:28:04.726Z,12.20
2018-05-31T10:30:32.283Z,11.47
2018-05-31T10:33:00.633Z,11.03
2018-05-31T10:35:28.235Z,11.90
2018-05-31T10:37:55.839Z,11.37
2018-05-31T10:40:23.411Z,11.23
2018-05-31T10:42:51.014Z,11.60
2018-05-31T10:45:19.386Z,11.10
2018-05-31T10:47:46.962Z,10.47
2018-05-31T10:50:15.339Z,9.77
2018-05-31T10:52:43.721Z,9.23
2018-05-31T10:55:12.086Z,10.03
2018-05-31T10:57:39.664Z,9.83
2018-05-31T11:00:07.275Z,10.37
2018-05-31T11:02:34.845Z,10.47
2018-05-31T11:05:02.447Z,9.93
2018-05-31T11:07:30.026Z,10.67
2018-05-31T11:09:57.591Z,10.23
2018-05-31T11:12:25.957Z,10.07
2018-05-31T11:14:53.556Z,9.87
2018-05-31T11:17:25.559Z,9.53
2018-05-31T11:19:53.946Z,10.10
2018-05-31T11:22:21.545Z,9.70
2018-05-31T11:24:49.155Z,10.40
2018-05-31T11:27:16.723Z,9.03
2018-05-31T11:29:44.323Z,8.93
2018-05-31T11:32:11.920Z,9.07
2018-05-31T11:34:39.487Z,8.60
2018-05-31T11:37:07.104Z,9.37
2018-05-31T11:39:34.681Z,8.50
2018-05-31T11:42:02.261Z,9.00
2018-05-31T11:44:29.846Z,8.10
2018-05-31T11:46:57.445Z,9.13
2018-05-31T11:49:25.010Z,9.10
2018-05-31T11:51:52.626Z,8.37
2018-05-31T11:54:20.177Z,9.10
2018-05-31T11:56:47.743Z,9.38
2018-05-31T11:59:15.344Z,9.45
2018-05-31T12:01:43.699Z,9.95
2018-05-31T12:04:11.296Z,9.43
2018-05-31T12:06:39.615Z,11.10
2018-05-31T12:09:07.222Z,9.68
2018-05-31T12:11:34.792Z,10.60
2018-05-31T12:14:02.384Z,10.55
2018-05-31T12:16:29.958Z,10.52
2018-05-31T12:18:57.565Z,11.25
2018-05-31T12:21:25.138Z,11.43
2018-05-31T12:23:52.744Z,11.52
2018-05-31T12:26:20.331Z,11.73
2018-05-31T12:28:47.949Z,10.15
2018-05-31T12:31:16.281Z,10.68
2018-05-31T12:33:43.847Z,11.07
2018-05-31T12:36:11.439Z,10.93
2018-05-31T12:38:38.995Z,11.20
2018-05-31T12:41:06.616Z,10.18
2018-05-31T12:43:34.175Z,9.15
2018-05-31T12:46:02.534Z,9.90
2018-05-31T12:48:30.537Z,9.88
2018-05-31T12:50:58.226Z,9.63
2018-05-31T12:53:25.789Z,9.75
2018-05-31T12:55:53.379Z,9.55
2018-05-31T12:58:20.949Z,10.18
2018-05-31T13:00:48.549Z,9.27
2018-05-31T13:03:16.121Z,10.23
2018-05-31T13:05:44.548Z,9.57
2018-05-31T13:08:12.851Z,9.25
2018-05-31T13:10:40.459Z,9.32
2018-05-31T13:13:08.791Z,9.30
2018-05-31T13:15:36.380Z,8.95
2018-05-31T13:18:03.945Z,9.13
2018-05-31T13:20:31.544Z,8.88
2018-05-31T13:22:59.156Z,8.38
2018-05-31T13:25:26.719Z,8.45
2018-05-31T13:27:54.298Z,8.65
2018-05-31T13:30:21.851Z,8.98
2018-05-31T13:32:49.451Z,8.73
2018-05-31T13:35:17.770Z,7.93
2018-05-31T13:37:45.359Z,8.55
2018-05-31T13:40:12.931Z,8.60
2018-05-31T13:42:40.537Z,8.98
2018-05-31T13:45:08.867Z,8.70
2018-05-31T13:47:36.468Z,8.48
2018-05-31T13:50:04.807Z,8.52
2018-05-31T13:52:32.404Z,8.32
2018-05-31T13:54:59.969Z,8.52
2018-05-31T13:57:27.564Z,8.70
2018-05-31T13:59:55.901Z,8.02
2018-05-31T14:02:23.495Z,8.30
2018-05-31T14:04:51.092Z,7.90
2018-05-31T14:07:18.663Z,7.57
2018-05-31T14:09:46.410Z,7.95
2018-05-31T14:12:14.766Z,7.53
2018-05-31T14:14:42.460Z,8.15
2018-05-31T14:17:10.288Z,7.75
2018-05-31T14:19:38.984Z,7.85
2018-05-31T14:22:06.555Z,8.10
2018-05-31T14:24:34.168Z,7.43
2018-05-31T14:27:01.762Z,8.00
2018-05-31T14:29:29.348Z,7.30
2018-05-31T14:31:56.934Z,7.32
2018-05-31T14:34:24.520Z,7.07
2018-05-31T14:36:52.112Z,7.43
2018-05-31T14:39:19.679Z,8.30
2018-05-31T14:41:47.298Z,7.72
2018-05-31T14:44:15.678Z,8.15
2018-05-31T14:46:43.307Z,8.13
2018-05-31T14:49:10.933Z,8.45
2018-05-31T14:51:38.499Z,8.13
2018-05-31T14:54:06.090Z,7.95
2018-05-31T14:56:33.686Z,8.32
2018-05-31T14:59:01.241Z,7.43
2018-05-31T15:01:28.834Z,8.63
2018-05-31T15:03:56.421Z,8.60
2018-05-31T15:06:24.024Z,8.48
2018-05-31T15:08:51.591Z,8.02
2018-05-31T15:11:19.221Z,8.32
2018-05-31T15:13:46.789Z,9.90
2018-05-31T15:16:14.356Z,8.25
2018-05-31T15:18:41.943Z,8.13
2018-05-31T15:21:09.535Z,8.18
2018-05-31T15:23:37.097Z,8.48
2018-05-31T15:26:04.756Z,8.07
2018-05-31T15:28:32.348Z,8.20
2018-05-31T15:30:59.936Z,8.10
2018-05-31T15:33:28.298Z,8.00
2018-05-31T15:35:56.647Z,8.15
2018-05-31T15:38:24.243Z,7.97
2018-05-31T15:40:51.824Z,8.38
2018-05-31T15:43:20.178Z,8.15
2018-05-31T15:45:48.526Z,8.50
2018-05-31T15:48:16.123Z,7.18
2018-05-31T15:50:43.698Z,8.23
2018-05-31T15:53:11.304Z,8.20
2018-05-31T15:55:38.903Z,8.18
2018-05-31T15:58:06.478Z,8.80
2018-05-31T16:00:34.084Z,8.18
2018-05-31T16:03:01.719Z,7.87
2018-05-31T16:05:29.289Z,8.13
2018-05-31T16:07:56.872Z,8.40
2018-05-31T16:10:25.192Z,8.77
2018-05-31T16:12:52.783Z,8.25
2018-05-31T16:15:20.341Z,7.90
2018-05-31T16:17:47.930Z,8.75
2018-05-31T16:20:15.530Z,8.85
2018-05-31T16:22:43.085Z,7.55
2018-05-31T16:25:11.446Z,7.40
2018-05-31T16:27:39.037Z,7.10
2018-05-31T16:30:07.387Z,7.22
2018-05-31T16:32:34.964Z,7.30
2018-05-31T16:35:03.384Z,7.55
2018-05-31T16:37:30.987Z,7.47
2018-05-31T16:39:58.593Z,7.78
2018-05-31T16:42:26.927Z,7.47
2018-05-31T16:44:54.530Z,8.20
2018-05-31T16:47:22.164Z,7.80
2018-05-31T16:49:49.741Z,7.12
2018-05-31T16:52:17.326Z,8.00
2018-05-31T16:54:44.887Z,7.72
2018-05-31T16:57:12.482Z,7.78
2018-05-31T16:59:40.050Z,7.37
2018-05-31T17:02:07.648Z,7.53
2018-05-31T17:04:35.268Z,7.47
2018-05-31T17:07:02.865Z,7.47
2018-05-31T17:09:30.453Z,7.03
2018-05-31T17:11:58.059Z,7.32
2018-05-31T17:14:26.406Z,7.90
2018-05-31T17:16:53.966Z,7.55
2018-05-31T17:19:21.547Z,7.72
2018-05-31T17:21:49.110Z,8.38
2018-05-31T17:24:16.701Z,7.72
2018-05-31T17:26:45.065Z,7.40
2018-05-31T17:29:12.660Z,7.77
2018-05-31T17:31:41.040Z,7.90
2018-05-31T17:34:08.603Z,7.53
2018-05-31T17:36:36.945Z,7.30
2018-05-31T17:39:04.560Z,7.70
2018-05-31T17:41:32.136Z,7.57
2018-05-31T17:43:59.748Z,7.63
2018-05-31T17:46:27.327Z,7.30
2018-05-31T17:48:54.932Z,7.73
2018-05-31T17:51:22.509Z,7.63
2018-05-31T17:53:50.116Z,7.80
2018-05-31T17:56:17.676Z,7.70
2018-05-31T17:58:45.301Z,7.77
2018-05-31T18:01:12.891Z,7.23
2018-05-31T18:03:40.465Z,7.50
2018-05-31T18:06:08.100Z,7.83
2018-05-31T18:08:35.707Z,7.47
2018-05-31T18:11:03.278Z,7.53
2018-05-31T18:13:30.883Z,7.07
2018-05-31T18:15:58.474Z,7.67
2018-05-31T18:18:26.075Z,7.70
2018-05-31T18:20:53.664Z,6.70
2018-05-31T18:23:22.034Z,7.13
2018-05-31T18:25:49.629Z,7.33
2018-05-31T18:28:17.220Z,6.67
2018-05-31T18:30:44.803Z,6.83
2018-05-31T18:33:12.428Z,7.30
2018-05-31T18:35:40.024Z,7.20
2018-05-31T18:38:07.594Z,6.87
2018-05-31T18:40:35.245Z,6.23
2018-05-31T18:43:02.821Z,7.27
2018-05-31T18:45:30.433Z,7.13
2018-05-31T18:47:58.790Z,6.87
2018-05-31T18:50:26.516Z,6.90
2018-05-31T18:52:54.116Z,6.80
2018-05-31T18:55:21.730Z,6.30
2018-05-31T18:57:49.288Z,6.50
2018-05-31T19:00:17.639Z,6.17
2018-05-31T19:02:45.205Z,6.43
2018-05-31T19:05:12.802Z,6.47
2018-05-31T19:07:41.132Z,6.27
2018-05-31T19:10:08.740Z,6.77
2018-05-31T19:12:42.771Z,6.27
2018-05-31T19:15:10.385Z,6.30
2018-05-31T19:17:37.959Z,6.30
2018-05-31T19:20:05.514Z,6.40
2018-05-31T19:22:33.177Z,6.67
2018-05-31T19:25:06.331Z,6.93
2018-05-31T19:27:33.913Z,6.67
2018-05-31T19:30:07.069Z,6.47
2018-05-31T19:32:35.430Z,7.40
2018-05-31T19:35:03.024Z,6.90
2018-05-31T19:37:30.631Z,6.30
2018-05-31T19:39:58.243Z,6.33
2018-05-31T19:42:31.427Z,6.73
2018-05-31T19:44:59.019Z,6.63
2018-05-31T19:47:26.626Z,6.50
2018-05-31T19:49:54.185Z,6.90
2018-05-31T19:52:27.506Z,6.47
2018-05-31T19:54:55.078Z,6.60
2018-05-31T19:57:22.657Z,6.80
2018-05-31T19:59:56.656Z,5.87
2018-05-31T20:02:29.922Z,7.40
2018-05-31T20:04:57.541Z,6.43
2018-05-31T20:07:25.868Z,6.30
2018-05-31T20:09:53.512Z,6.37
2018-05-31T20:12:21.259Z,6.13
2018-05-31T20:14:49.510Z,6.27
2018-05-31T20:17:17.070Z,6.40
2018-05-31T20:19:44.691Z,5.80
2018-05-31T20:22:12.252Z,6.13
2018-05-31T20:24:39.881Z,6.57
2018-05-31T20:27:07.452Z,6.33
2018-05-31T20:29:35.811Z,5.90
2018-05-31T20:32:04.186Z,7.13
2018-05-31T20:34:31.736Z,6.53
2018-05-31T20:36:59.331Z,5.87
2018-05-31T20:39:26.918Z,6.00
2018-05-31T20:41:54.504Z,6.00
2018-05-31T20:44:22.896Z,5.87
2018-05-31T20:46:50.457Z,6.20
2018-05-31T20:49:18.048Z,5.63
2018-05-31T20:51:45.609Z,5.87
2018-05-31T20:54:13.184Z,6.20
2018-05-31T20:56:40.755Z,5.97
2018-05-31T20:59:08.343Z,5.47
2018-05-31T21:01:35.940Z,6.23
2018-05-31T21:04:03.512Z,5.60
2018-05-31T21:06:31.106Z,5.83
2018-05-31T21:08:58.671Z,6.30
2018-05-31T21:11:26.266Z,5.77
2018-05-31T21:13:53.830Z,6.07
2018-05-31T21:16:21.421Z,6.20
2018-05-31T21:18:48.985Z,5.60
2018-05-31T21:21:17.340Z,6.07
2018-05-31T21:23:44.898Z,6.30
2018-05-31T21:26:12.501Z,5.87
2018-05-31T21:28:40.053Z,5.87
2018-05-31T21:31:08.417Z,6.37
2018-05-31T21:33:36.031Z,6.10
2018-05-31T21:36:03.634Z,6.03
2018-05-31T21:38:31.180Z,6.30
2018-05-31T21:40:58.778Z,6.10
2018-05-31T21:43:26.341Z,6.70
2018-05-31T21:45:53.906Z,6.03
2018-05-31T21:48:21.493Z,5.97
2018-05-31T21:50:49.820Z,6.17
2018-05-31T21:53:17.402Z,6.10
2018-05-31T21:55:45.010Z,6.07
2018-05-31T21:58:13.333Z,6.23
2018-05-31T22:00:46.584Z,6.10
2018-05-31T22:03:14.926Z,6.13
2018-05-31T22:05:42.490Z,5.33
2018-05-31T22:08:10.078Z,5.90
2018-05-31T22:10:37.631Z,5.87
2018-05-31T22:13:05.221Z,6.03
2018-05-31T22:15:33.559Z,6.00
2018-05-31T22:18:01.136Z,5.87
2018-05-31T22:20:28.697Z,5.90
2018-05-31T22:22:56.305Z,6.07
2018-05-31T22:25:23.881Z,6.00
2018-05-31T22:27:51.447Z,6.20
2018-05-31T22:30:19.024Z,5.43
2018-05-31T22:32:46.584Z,6.00
2018-05-31T22:35:14.165Z,6.37
2018-05-31T22:37:41.761Z,5.83
2018-05-31T22:40:09.423Z,5.90
2018-05-31T22:42:37.054Z,5.40
2018-05-31T22:45:04.605Z,5.20
2018-05-31T22:47:32.249Z,5.43
2018-05-31T22:50:00.591Z,5.60
2018-05-31T22:52:28.213Z,5.93
2018-05-31T22:54:55.843Z,5.40
2018-05-31T22:57:23.402Z,5.60
2018-05-31T22:59:50.999Z,5.23
2018-05-31T23:02:18.603Z,5.40
2018-05-31T23:04:46.996Z,5.87
2018-05-31T23:07:15.401Z,5.83
2018-05-31T23:09:43.032Z,6.30
2018-05-31T23:12:11.380Z,5.27
2018-05-31T23:14:38.936Z,5.83
2018-05-31T23:17:07.333Z,5.90
2018-05-31T23:19:35.729Z,5.17
2018-05-31T23:22:03.315Z,5.13
2018-05-31T23:24:30.899Z,5.73
2018-05-31T23:26:58.493Z,5.17
2018-05-31T23:29:26.054Z,5.97
2018-05-31T23:31:53.675Z,5.17
2018-05-31T23:34:21.257Z,5.40
2018-05-31T23:36:48.850Z,5.37
2018-05-31T23:39:16.639Z,5.67
2018-05-31T23:41:45.036Z,5.67
2018-05-31T23:44:12.587Z,5.73
2018-05-31T23:46:40.916Z,5.50
2018-05-31T23:49:08.508Z,6.07
2018-05-31T23:51:36.073Z,5.33
2018-05-31T23:54:03.673Z,5.20
2018-05-31T23:56:32.061Z,5.50
2018-05-31T23:58:59.648Z,5.60
